Time;durP1;ratioP1;P1;durP2;ratioP2;P2;SDS_P1;SDS_P2;PMS_P1;PMS_P2;Temp;Humidity;BMP_temperature;BMP_pressure;BME280_temperature;BME280_humidity;BME280_pressure;Samples;Min_cycle;Max_cycle;Signal;HPM_P1;HPM_P2
2021/09/04 00:00:50;;;;;;;;;;;;;;;13.76;73.26;96599.81;5055642;28;20023;-83
2021/09/04 00:03:16;;;;;;;;;;;;;;;13.73;73.94;96600.28;5054524;28;20008;-83
2021/09/04 00:05:42;;;;;;;;;;;;;;;13.70;73.68;96599.94;5054161;28;19970;-83
2021/09/04 00:08:08;;;;;;;;;;;;;;;13.68;73.75;96591.47;5055755;28;19972;-83
2021/09/04 00:10:34;;;;;;;;;;;;;;;13.66;73.91;96598.81;5054907;28;20046;-83
2021/09/04 00:13:00;;;;;;;;;;;;;;;13.62;73.94;96598.47;5055452;28;19965;-83
2021/09/04 00:15:26;;;;;;;;;;;;;;;13.59;73.96;96594.47;5055508;28;20415;-83
2021/09/04 00:17:53;;;;;;;;;;;;;;;13.57;74.28;96595.75;5055032;28;19972;-83
2021/09/04 00:20:19;;;;;;;;;;;;;;;13.54;74.45;96596.19;5055631;28;19977;-83
2021/09/04 00:22:45;;;;;;;;;;;;;;;13.52;74.73;96590.34;5054680;28;20498;-82
2021/09/04 00:25:11;;;;;;;;;;;;;;;13.49;74.41;96589.00;5055329;28;20456;-83
2021/09/04 00:27:37;;;;;;;;;;;;;;;13.48;74.20;96582.13;5054715;28;20015;-83
2021/09/04 00:30:04;;;;;;;;;;;;;;;13.46;74.14;96584.19;5055076;28;19976;-83
2021/09/04 00:32:30;;;;;;;;;;;;;;;13.46;73.96;96586.00;5054753;28;19967;-83
2021/09/04 00:34:56;;;;;;;;;;;;;;;13.45;74.31;96587.06;5055614;28;19958;-83
2021/09/04 00:37:21;;;;;;;;;;;;;;;13.43;74.43;96589.13;5053925;28;20360;-83
2021/09/04 00:39:47;;;;;;;;;;;;;;;13.42;74.67;96590.13;5054677;28;19959;-83
2021/09/04 00:42:14;;;;;;;;;;;;;;;13.38;74.49;96587.19;5054630;28;19977;-83
2021/09/04 00:44:40;;;;;;;;;;;;;;;13.37;73.94;96588.22;5054866;28;19957;-83
2021/09/04 00:47:06;;;;;;;;;;;;;;;13.36;73.92;96594.53;5054680;28;20471;-83
2021/09/04 00:49:33;;;;;;;;;;;;;;;13.35;74.30;96588.44;5054664;28;20317;-83
2021/09/04 00:51:59;;;;;;;;;;;;;;;13.32;74.32;96594.19;5054581;28;19965;-83
2021/09/04 00:54:25;;;;;;;;;;;;;;;13.31;74.36;96578.59;5055023;28;19970;-84
2021/09/04 00:56:51;;;;;;;;;;;;;;;13.30;74.53;96582.28;5054404;28;19958;-83
2021/09/04 00:59:17;;;;;;;;;;;;;;;13.25;74.58;96582.94;5052729;28;19962;-83
2021/09/04 01:01:43;;;;;;;;;;;;;;;13.24;74.59;96583.16;5054162;28;19965;-83
2021/09/04 01:04:09;;;;;;;;;;;;;;;13.20;74.73;96586.25;5054842;28;20433;-83
2021/09/04 01:06:35;;;;;;;;;;;;;;;13.19;74.65;96583.88;5054254;28;19989;-84
2021/09/04 01:09:01;;;;;;;;;;;;;;;13.17;74.86;96580.66;5052944;28;19965;-83
2021/09/04 01:11:28;;;;;;;;;;;;;;;13.16;75.11;96581.69;5054335;28;19953;-83
2021/09/04 01:13:54;;;;;;;;;;;;;;;13.13;75.37;96585.59;5054226;28;19966;-83
2021/09/04 01:16:19;;;;;;;;;;;;;;;13.10;74.95;96586.06;5053514;28;20407;-83
2021/09/04 01:18:45;;;;;;;;;;;;;;;13.09;74.96;96586.28;5054070;28;19978;-83
2021/09/04 01:21:12;;;;;;;;;;;;;;;13.07;75.12;96581.22;5053676;28;19967;-84
2021/09/04 01:23:39;;;;;;;;;;;;;;;13.05;75.48;96570.13;5054337;28;19982;-84
2021/09/04 01:26:08;;;;;;;;;;;;;;;13.04;75.43;96570.34;5054088;28;19967;-84
2021/09/04 01:28:35;;;;;;;;;;;;;;;13.00;75.70;96573.47;5053901;28;19978;-83
2021/09/04 01:31:01;;;;;;;;;;;;;;;12.97;75.82;96573.09;5053088;28;19972;-83
2021/09/04 01:33:27;;;;;;;;;;;;;;;12.95;75.98;96570.69;5053904;28;20347;-84
2021/09/04 01:35:53;;;;;;;;;;;;;;;12.95;76.39;96572.53;5053219;28;19978;-84
2021/09/04 01:38:19;;;;;;;;;;;;;;;12.94;76.17;96563.06;5053864;28;19973;-84
2021/09/04 01:40:45;;;;;;;;;;;;;;;12.92;76.10;96565.13;5054027;28;19965;-84
2021/09/04 01:43:11;;;;;;;;;;;;;;;12.89;76.03;96558.47;5053861;28;19996;-84
2021/09/04 01:45:37;;;;;;;;;;;;;;;12.89;75.89;96555.84;5051481;28;19970;-84
2021/09/04 01:48:03;;;;;;;;;;;;;;;12.88;75.74;96558.69;5053581;28;19992;-84
2021/09/04 01:50:29;;;;;;;;;;;;;;;12.86;76.02;96563.41;5053989;28;19960;-84
2021/09/04 01:52:55;;;;;;;;;;;;;;;12.83;75.92;96553.31;5053639;28;19963;-84
2021/09/04 01:55:21;;;;;;;;;;;;;;;12.82;75.83;96554.34;5053582;28;20010;-84
2021/09/04 01:57:47;;;;;;;;;;;;;;;12.81;75.40;96553.56;5053438;28;19966;-84
2021/09/04 02:00:13;;;;;;;;;;;;;;;12.80;75.47;96557.22;5053288;28;19975;-84
2021/09/04 02:02:40;;;;;;;;;;;;;;;12.78;75.51;96556.63;5052501;28;19972;-84
2021/09/04 02:05:06;;;;;;;;;;;;;;;12.77;75.56;96555.84;5053469;28;20335;-84
2021/09/04 02:07:32;;;;;;;;;;;;;;;12.76;75.39;96556.84;5053647;28;19991;-84
2021/09/04 02:09:58;;;;;;;;;;;;;;;12.74;75.92;96560.75;5053612;28;20001;-84
2021/09/04 02:12:24;;;;;;;;;;;;;;;12.71;76.55;96554.13;5053374;28;19976;-84
2021/09/04 02:14:51;;;;;;;;;;;;;;;12.68;75.93;96554.59;5052684;28;19974;-84
2021/09/04 02:17:17;;;;;;;;;;;;;;;12.66;75.29;96556.66;5053529;28;19972;-84
2021/09/04 02:19:43;;;;;;;;;;;;;;;12.66;75.44;96556.66;5053320;28;19966;-84
2021/09/04 02:22:08;;;;;;;;;;;;;;;12.66;75.28;96561.09;5053514;28;20389;-84
2021/09/04 02:24:34;;;;;;;;;;;;;;;12.65;75.27;96557.66;5053365;28;20114;-84
2021/09/04 02:27:00;;;;;;;;;;;;;;;12.63;75.71;96562.34;5053031;28;19985;-84
2021/09/04 02:29:26;;;;;;;;;;;;;;;12.59;75.64;96554.09;5056522;28;20051;-84
2021/09/04 02:31:52;;;;;;;;;;;;;;;12.57;75.66;96550.91;5057250;28;20053;-84
2021/09/04 02:34:18;;;;;;;;;;;;;;;12.56;76.03;96545.88;5057670;28;19977;-84
2021/09/04 02:36:44;;;;;;;;;;;;;;;12.54;76.10;96547.94;5057041;28;20432;-84
2021/09/04 02:39:10;;;;;;;;;;;;;;;12.52;76.27;96544.72;5057096;28;19958;-84
2021/09/04 02:41:36;;;;;;;;;;;;;;;12.49;76.48;96543.34;5056934;28;20418;-84
2021/09/04 02:44:01;;;;;;;;;;;;;;;12.47;75.73;96540.13;5057249;28;19971;-84
2021/09/04 02:46:27;;;;;;;;;;;;;;;12.46;75.98;96537.75;5055911;28;20393;-84
2021/09/04 02:48:53;;;;;;;;;;;;;;;12.44;75.67;96537.97;5056995;28;20454;-84
2021/09/04 02:51:19;;;;;;;;;;;;;;;12.43;76.29;96541.63;5056935;28;19966;-84
2021/09/04 02:53:45;;;;;;;;;;;;;;;12.41;75.67;96546.31;5056728;28;19981;-84
2021/09/04 02:56:11;;;;;;;;;;;;;;;12.39;75.76;96548.38;5056863;28;20436;-84
2021/09/04 02:58:37;;;;;;;;;;;;;;;12.37;76.29;96540.72;5057020;28;20032;-84
2021/09/04 03:01:03;;;;;;;;;;;;;;;12.34;76.27;96540.34;5056793;28;19974;-84
2021/09/04 03:03:29;;;;;;;;;;;;;;;12.31;76.52;96535.56;5056971;28;19974;-84
2021/09/04 03:05:55;;;;;;;;;;;;;;;12.28;76.16;96538.63;5056857;28;20141;-84
2021/09/04 03:08:21;;;;;;;;;;;;;;;12.26;76.46;96538.84;5056402;28;19979;-84
2021/09/04 03:10:47;;;;;;;;;;;;;;;12.24;76.68;96530.41;5088690;28;19960;-84
2021/09/04 03:13:13;;;;;;;;;;;;;;;12.22;77.04;96539.53;5056807;28;19973;-85
2021/09/04 03:15:39;;;;;;;;;;;;;;;12.18;77.07;96540.00;5056462;28;19974;-84
2021/09/04 03:18:05;;;;;;;;;;;;;;;12.19;77.12;96541.56;5056392;28;20490;-84
2021/09/04 03:20:31;;;;;;;;;;;;;;;12.16;77.27;96538.63;5056611;28;20461;-84
2021/09/04 03:22:57;;;;;;;;;;;;;;;12.14;77.50;96530.94;5054808;28;19987;-85
2021/09/04 03:25:23;;;;;;;;;;;;;;;12.12;77.64;96537.47;5056208;28;19974;-85
2021/09/04 03:27:49;;;;;;;;;;;;;;;12.09;77.42;96525.56;5056147;28;19990;-84
2021/09/04 03:30:14;;;;;;;;;;;;;;;12.09;77.01;96540.53;5056196;28;20330;-84
2021/09/04 03:32:40;;;;;;;;;;;;;;;12.07;76.64;96542.56;5056427;28;19985;-83
2021/09/04 03:35:06;;;;;;;;;;;;;;;12.05;76.50;96534.91;5056054;28;19975;-83
2021/09/04 03:37:32;;;;;;;;;;;;;;;12.06;76.44;96536.53;5056156;28;19961;-83
2021/09/04 03:39:58;;;;;;;;;;;;;;;12.04;76.45;96540.41;5055590;28;19992;-85
2021/09/04 03:42:24;;;;;;;;;;;;;;;12.04;76.78;96535.16;5054877;28;20028;-85
2021/09/04 03:44:50;;;;;;;;;;;;;;;12.01;77.13;96533.78;5055947;28;20053;-84
2021/09/04 03:47:16;;;;;;;;;;;;;;;12.01;77.14;96533.78;5054879;28;20012;-84
2021/09/04 03:49:42;;;;;;;;;;;;;;;11.98;77.82;96537.63;5055911;28;19973;-84
2021/09/04 03:52:07;;;;;;;;;;;;;;;11.94;77.60;96533.84;5054136;28;20013;-85
2021/09/04 03:54:33;;;;;;;;;;;;;;;11.90;77.31;96524.03;5055748;28;19965;-85
2021/09/04 03:56:59;;;;;;;;;;;;;;;11.89;77.16;96525.06;5055830;28;19968;-85
2021/09/04 03:59:26;;;;;;;;;;;;;;;11.86;77.15;96523.63;5056259;28;20034;-85
2021/09/04 04:01:52;;;;;;;;;;;;;;;11.84;76.85;96523.03;5055638;28;19964;-85
2021/09/04 04:04:17;;;;;;;;;;;;;;;11.82;76.70;96516.41;5055644;28;20007;-85
2021/09/04 04:06:46;;;;;;;;;;;;;;;11.82;76.85;96526.94;5055301;28;19967;-85
2021/09/04 04:09:12;;;;;;;;;;;;;;;11.81;76.62;96528.75;5055460;28;19968;-85
2021/09/04 04:11:38;;;;;;;;;;;;;;;11.79;76.75;96523.72;5054336;28;20004;-85
2021/09/04 04:14:04;;;;;;;;;;;;;;;11.78;76.70;96530.03;5055561;28;19975;-85
2021/09/04 04:16:30;;;;;;;;;;;;;;;11.78;77.06;96532.66;5055348;28;20397;-85
2021/09/04 04:18:56;;;;;;;;;;;;;;;11.77;77.90;96531.03;5055554;28;19973;-84
2021/09/04 04:21:22;;;;;;;;;;;;;;;11.74;77.28;96520.97;5055134;28;20419;-84
2021/09/04 04:23:48;;;;;;;;;;;;;;;11.73;77.20;96531.69;5054859;28;20000;-84
2021/09/04 04:26:14;;;;;;;;;;;;;;;11.71;76.87;96528.50;5055315;28;19973;-84
2021/09/04 04:28:40;;;;;;;;;;;;;;;11.69;76.45;96522.66;5055088;28;19973;-84
2021/09/04 04:31:06;;;;;;;;;;;;;;;11.67;76.27;96527.34;5055226;28;20434;-84
2021/09/04 04:33:31;;;;;;;;;;;;;;;11.64;76.36;96520.72;5055249;28;19963;-84
2021/09/04 04:35:57;;;;;;;;;;;;;;;11.61;76.22;96533.47;5038702;28;19971;-84
2021/09/04 04:38:23;;;;;;;;;;;;;;;11.60;76.67;96527.44;5053617;28;19965;-85
2021/09/04 04:40:49;;;;;;;;;;;;;;;11.58;77.11;96532.91;5054935;28;19958;-85
2021/09/04 04:43:16;;;;;;;;;;;;;;;11.57;76.66;96533.13;5054833;28;19960;-85
2021/09/04 04:45:42;;;;;;;;;;;;;;;11.55;76.35;96535.97;5054833;28;19966;-84
2021/09/04 04:48:08;;;;;;;;;;;;;;;11.56;76.85;96542.81;5054729;28;20432;-84
2021/09/04 04:50:34;;;;;;;;;;;;;;;11.54;76.66;96539.59;5054083;28;19977;-84
2021/09/04 04:53:01;;;;;;;;;;;;;;;11.52;77.16;96540.88;5053672;28;20045;-84
2021/09/04 04:55:27;;;;;;;;;;;;;;;11.51;77.17;96544.53;5055094;28;19973;-84
2021/09/04 04:57:53;;;;;;;;;;;;;;;11.50;77.12;96548.16;5054451;28;20039;-84
2021/09/04 05:00:19;;;;;;;;;;;;;;;11.49;77.11;96544.75;5054653;28;19963;-84
2021/09/04 05:02:45;;;;;;;;;;;;;;;11.47;77.14;96546.78;5054186;28;19963;-84
2021/09/04 05:05:10;;;;;;;;;;;;;;;11.45;77.29;96540.94;5054459;28;20011;-84
2021/09/04 05:07:36;;;;;;;;;;;;;;;11.44;77.25;96541.97;5054194;28;20023;-84
2021/09/04 05:10:03;;;;;;;;;;;;;;;11.45;77.14;96545.41;5053215;28;20409;-84
2021/09/04 05:12:29;;;;;;;;;;;;;;;11.44;77.42;96543.78;5054403;28;20425;-84
2021/09/04 05:14:55;;;;;;;;;;;;;;;11.45;77.78;96540.16;5054195;28;19958;-84
2021/09/04 05:17:20;;;;;;;;;;;;;;;11.46;77.62;96542.53;5054213;28;19971;-84
2021/09/04 05:19:46;;;;;;;;;;;;;;;11.50;77.78;96537.66;5053860;28;20001;-84
2021/09/04 05:22:12;;;;;;;;;;;;;;;11.70;77.72;96540.03;5053919;28;19988;-84
2021/09/04 05:24:38;;;;;;;;;;;;;;;12.17;77.28;96542.84;5053725;28;20442;-84
2021/09/04 05:27:04;;;;;;;;;;;;;;;12.71;76.56;96535.69;5053983;28;20061;-84
2021/09/04 05:29:30;;;;;;;;;;;;;;;13.24;75.33;96539.19;5053924;28;19952;-85
2021/09/04 05:31:56;;;;;;;;;;;;;;;13.73;73.93;96541.47;5053889;28;19966;-85
2021/09/04 05:34:22;;;;;;;;;;;;;;;14.20;73.04;96536.00;5053804;28;19980;-85
2021/09/04 05:36:48;;;;;;;;;;;;;;;14.61;71.64;96540.13;5053871;28;19973;-84
2021/09/04 05:39:14;;;;;;;;;;;;;;;14.92;70.46;96543.19;5053829;28;19970;-85
2021/09/04 05:41:40;;;;;;;;;;;;;;;15.14;68.69;96537.13;5053983;28;19974;-84
2021/09/04 05:44:06;;;;;;;;;;;;;;;15.36;67.72;96547.72;5053857;28;19973;-84
2021/09/04 05:46:32;;;;;;;;;;;;;;;15.50;66.83;96548.16;5053880;28;19969;-84
2021/09/04 05:48:58;;;;;;;;;;;;;;;15.69;66.53;96548.66;5053691;28;20370;-84
2021/09/04 05:51:23;;;;;;;;;;;;;;;15.96;66.42;96544.22;5053705;28;20020;-84
2021/09/04 05:53:49;;;;;;;;;;;;;;;16.25;66.04;96538.63;5053674;28;20435;-84
2021/09/04 05:56:15;;;;;;;;;;;;;;;16.55;65.48;96538.09;5054004;28;20498;-84
2021/09/04 05:58:41;;;;;;;;;;;;;;;16.83;64.22;96526.38;5053469;28;19970;-84
2021/09/04 06:01:07;;;;;;;;;;;;;;;17.09;64.20;96529.19;5053572;28;20009;-84
2021/09/04 06:03:33;;;;;;;;;;;;;;;17.34;63.21;96517.91;5053504;28;19973;-84
2021/09/04 06:05:59;;;;;;;;;;;;;;;17.60;62.82;96518.00;5053708;28;19969;-84
2021/09/04 06:08:25;;;;;;;;;;;;;;;17.83;61.89;96517.56;5053470;28;19989;-84
2021/09/04 06:10:51;;;;;;;;;;;;;;;18.08;61.18;96504.59;5053910;28;19973;-84
2021/09/04 06:13:17;;;;;;;;;;;;;;;18.29;60.73;96500.91;5051822;28;19972;-84
2021/09/04 06:15:43;;;;;;;;;;;;;;;18.47;60.72;96502.22;5053252;28;19966;-84
2021/09/04 06:18:09;;;;;;;;;;;;;;;18.64;59.98;96493.97;5053411;28;19976;-84
2021/09/04 06:20:35;;;;;;;;;;;;;;;18.73;60.16;96503.00;5053269;28;19965;-84
2021/09/04 06:23:01;;;;;;;;;;;;;;;18.85;59.91;96502.72;5053480;28;19997;-84
2021/09/04 06:25:27;;;;;;;;;;;;;;;18.97;59.63;96499.78;5053404;28;19981;-84
2021/09/04 06:27:53;;;;;;;;;;;;;;;19.04;59.25;96498.41;5053268;28;19985;-83
2021/09/04 06:30:19;;;;;;;;;;;;;;;19.07;59.36;96502.41;5053322;28;19981;-83
2021/09/04 06:32:45;;;;;;;;;;;;;;;19.06;58.32;96498.94;5053343;28;20342;-83
2021/09/04 06:35:11;;;;;;;;;;;;;;;18.91;59.66;96514.94;5051269;28;20068;-84
2021/09/04 06:37:37;;;;;;;;;;;;;;;18.79;59.27;96512.56;5053642;28;19976;-84
2021/09/04 06:40:04;;;;;;;;;;;;;;;18.57;59.80;96509.38;5053431;28;19981;-83
2021/09/04 06:42:30;;;;;;;;;;;;;;;18.49;60.56;96517.88;5053089;28;19973;-83
2021/09/04 06:44:56;;;;;;;;;;;;;;;18.36;59.66;96504.06;5053044;28;20333;-83
2021/09/04 06:47:22;;;;;;;;;;;;;;;18.34;61.52;96531.97;5052957;28;19989;-83
2021/09/04 06:49:48;;;;;;;;;;;;;;;18.44;61.52;96524.00;5053114;28;19977;-83
2021/09/04 06:52:14;;;;;;;;;;;;;;;18.51;62.13;96529.03;5052976;28;19978;-83
2021/09/04 06:54:40;;;;;;;;;;;;;;;18.58;61.90;96525.06;5053228;28;19977;-83
2021/09/04 06:57:05;;;;;;;;;;;;;;;18.64;61.31;96520.53;5052937;28;20394;-83
2021/09/04 06:59:32;;;;;;;;;;;;;;;18.65;61.12;96517.59;5052985;28;19969;-83
2021/09/04 07:01:57;;;;;;;;;;;;;;;18.66;61.16;96518.38;5052890;28;19972;-83
2021/09/04 07:04:23;;;;;;;;;;;;;;;18.61;61.74;96519.19;5052708;28;20059;-83
2021/09/04 07:06:49;;;;;;;;;;;;;;;18.65;61.84;96519.47;5053163;28;19969;-83
2021/09/04 07:09:15;;;;;;;;;;;;;;;18.83;61.41;96516.25;5052775;28;19993;-82
2021/09/04 07:11:41;;;;;;;;;;;;;;;18.91;60.56;96511.47;5053123;28;19969;-83
2021/09/04 07:14:07;;;;;;;;;;;;;;;18.99;61.04;96518.91;5052762;28;20046;-83
2021/09/04 07:16:33;;;;;;;;;;;;;;;19.12;60.97;96518.31;5056463;28;20064;-82
2021/09/04 07:18:59;;;;;;;;;;;;;;;19.16;60.76;96524.69;5056492;28;19987;-82
2021/09/04 07:21:25;;;;;;;;;;;;;;;19.18;61.13;96530.53;5055983;28;19973;-81
2021/09/04 07:23:51;;;;;;;;;;;;;;;19.29;60.16;96522.53;5056248;28;19976;-83
2021/09/04 07:26:17;;;;;;;;;;;;;;;19.26;60.29;96527.31;5056374;28;19977;-82
2021/09/04 07:28:42;;;;;;;;;;;;;;;19.31;61.01;96533.69;5056195;28;20021;-82
2021/09/04 07:31:09;;;;;;;;;;;;;;;19.22;60.30;96528.94;5055979;28;20422;-83
2021/09/04 07:33:35;;;;;;;;;;;;;;;19.16;60.11;96535.31;5037936;28;19973;-82
2021/09/04 07:36:03;;;;;;;;;;;;;;;19.16;60.08;96531.88;5056156;28;19973;-82
2021/09/04 07:38:30;;;;;;;;;;;;;;;19.18;60.96;96546.50;5056245;28;19973;-82
2021/09/04 07:40:56;;;;;;;;;;;;;;;19.20;60.97;96541.69;5055882;28;19970;-82
2021/09/04 07:43:22;;;;;;;;;;;;;;;19.27;62.23;96544.84;5055926;28;20441;-82
2021/09/04 07:45:47;;;;;;;;;;;;;;;19.37;60.82;96535.28;5055752;28;19973;-82
2021/09/04 07:48:13;;;;;;;;;;;;;;;19.45;60.57;96529.38;5056014;28;20406;-82
2021/09/04 07:50:39;;;;;;;;;;;;;;;19.45;60.11;96529.38;5055866;28;20068;-82
2021/09/04 07:53:05;;;;;;;;;;;;;;;19.57;61.20;96535.19;5056097;28;19969;-82
2021/09/04 07:55:31;;;;;;;;;;;;;;;19.78;60.66;96524.47;5056040;28;20024;-83
2021/09/04 07:57:57;;;;;;;;;;;;;;;19.90;60.03;96527.59;5055643;28;20333;-82
2021/09/04 08:00:23;;;;;;;;;;;;;;;19.90;58.53;96521.47;5054953;28;20005;-82
2021/09/04 08:02:49;;;;;;;;;;;;;;;19.85;59.15;96531.06;5055891;28;19992;-82
2021/09/04 08:05:15;;;;;;;;;;;;;;;19.87;60.61;96544.91;5055697;28;20423;-82
2021/09/04 08:07:40;;;;;;;;;;;;;;;19.84;59.37;96526.03;5055508;28;20017;-82
2021/09/04 08:10:07;;;;;;;;;;;;;;;19.97;60.62;96543.25;5055631;28;20405;-83
2021/09/04 08:12:33;;;;;;;;;;;;;;;20.00;59.73;96526.75;5055304;28;19969;-82
2021/09/04 08:14:59;;;;;;;;;;;;;;;20.01;59.72;96534.44;5054849;28;19966;-82
2021/09/04 08:17:25;;;;;;;;;;;;;;;19.97;59.67;96536.06;5053864;28;19979;-82
2021/09/04 08:19:51;;;;;;;;;;;;;;;20.02;61.40;96551.22;5055232;28;20354;-82
2021/09/04 08:22:16;;;;;;;;;;;;;;;20.13;60.74;96541.28;5055338;28;19997;-82
2021/09/04 08:24:42;;;;;;;;;;;;;;;20.30;60.12;96541.69;5055261;28;19973;-82
2021/09/04 08:27:08;;;;;;;;;;;;;;;20.39;60.01;96548.03;5054241;28;20057;-83
2021/09/04 08:29:34;;;;;;;;;;;;;;;20.42;59.61;96539.47;5054807;28;20028;-82
2021/09/04 08:32:00;;;;;;;;;;;;;;;20.51;59.54;96538.88;5055635;28;20377;-82
2021/09/04 08:34:26;;;;;;;;;;;;;;;20.63;59.00;96531.34;5055015;28;20467;-82
2021/09/04 08:36:52;;;;;;;;;;;;;;;20.71;58.00;96521.97;5055292;28;19985;-82
2021/09/04 08:39:18;;;;;;;;;;;;;;;20.76;57.05;96520.03;5052786;28;19982;-83
2021/09/04 08:41:44;;;;;;;;;;;;;;;20.81;57.61;96530.66;5054888;28;19972;-82
2021/09/04 08:44:10;;;;;;;;;;;;;;;20.87;56.70;96524.19;5054614;28;19973;-82
2021/09/04 08:46:37;;;;;;;;;;;;;;;20.85;56.16;96518.34;5054909;28;20047;-82
2021/09/04 08:49:04;;;;;;;;;;;;;;;20.84;57.30;96529.28;5054797;28;19998;-82
2021/09/04 08:51:30;;;;;;;;;;;;;;;20.96;58.93;96550.25;5054698;28;19973;-82
2021/09/04 08:53:56;;;;;;;;;;;;;;;21.04;55.89;96522.94;5054916;28;19984;-82
2021/09/04 08:56:22;;;;;;;;;;;;;;;21.03;54.57;96516.81;5054680;28;19969;-82
2021/09/04 08:58:48;;;;;;;;;;;;;;;21.04;53.65;96499.75;5054453;28;19969;-82
2021/09/04 09:01:18;;;;;;;;;;;;;;;21.09;55.12;96518.34;5054488;28;20019;-82
2021/09/04 09:03:44;;;;;;;;;;;;;;;21.18;55.79;96523.06;5054596;28;19969;-82
2021/09/04 09:06:11;;;;;;;;;;;;;;;21.21;54.38;96517.97;5054384;28;19973;-82
2021/09/04 09:08:41;;;;;;;;;;;;;;;21.25;57.42;96540.34;5054292;28;19992;-82
2021/09/04 09:11:08;;;;;;;;;;;;;;;21.28;55.32;96510.41;5054205;28;19969;-82
2021/09/04 09:13:44;;;;;;;;;;;;;;;21.23;55.69;96515.81;5054221;28;20399;-82
2021/09/04 09:16:14;;;;;;;;;;;;;;;21.21;54.99;96506.53;5054210;28;19964;-82
2021/09/04 09:18:40;;;;;;;;;;;;;;;21.18;54.49;96505.19;5054446;28;19970;-82
2021/09/04 09:21:06;;;;;;;;;;;;;;;21.21;55.88;96522.53;5053799;28;19989;-82
2021/09/04 09:23:32;;;;;;;;;;;;;;;21.23;56.10;96525.66;5053906;28;20043;-82
2021/09/04 09:26:08;;;;;;;;;;;;;;;21.25;55.95;96526.19;5053811;28;19973;-82
2021/09/04 09:28:34;;;;;;;;;;;;;;;21.20;54.84;96510.25;5053875;28;19988;-82
2021/09/04 09:31:00;;;;;;;;;;;;;;;21.24;54.08;96505.94;5054128;28;20455;-82
2021/09/04 09:33:27;;;;;;;;;;;;;;;21.27;54.08;96500.00;5054062;28;19972;-82
2021/09/04 09:35:57;;;;;;;;;;;;;;;21.28;54.22;96502.41;5053904;28;19973;-82
2021/09/04 09:38:25;;;;;;;;;;;;;;;21.29;54.85;96514.69;5053675;28;20350;-82
2021/09/04 09:40:52;;;;;;;;;;;;;;;21.36;54.24;96500.22;5053934;28;19969;-82
2021/09/04 09:43:22;;;;;;;;;;;;;;;21.38;55.15;96514.06;5053760;28;19966;-82
2021/09/04 09:45:48;;;;;;;;;;;;;;;21.39;53.39;96503.06;5054221;28;19970;-82
2021/09/04 09:48:21;;;;;;;;;;;;;;;21.40;54.29;96503.88;5052567;28;19981;-82
2021/09/04 09:50:49;;;;;;;;;;;;;;;21.39;54.62;96502.28;5053456;28;19969;-82
2021/09/04 09:53:16;;;;;;;;;;;;;;;21.40;53.22;96496.66;5042131;28;19973;-82
2021/09/04 09:55:46;;;;;;;;;;;;;;;21.45;52.42;96493.19;5053766;28;19973;-82
2021/09/04 09:58:13;;;;;;;;;;;;;;;21.47;51.62;96472.34;5053489;28;19976;-82
2021/09/04 10:00:40;;;;;;;;;;;;;;;21.44;51.70;96467.56;5053541;28;19973;-82
2021/09/04 10:03:07;;;;;;;;;;;;;;;21.46;53.84;96482.22;5053335;28;20323;-82
2021/09/04 10:05:33;;;;;;;;;;;;;;;21.54;52.64;96464.75;5053944;28;20331;-81
2021/09/04 10:07:59;;;;;;;;;;;;;;;21.56;51.48;96446.59;5053479;28;20431;-82
2021/09/04 10:10:29;;;;;;;;;;;;;;;21.62;51.83;96463.31;5053658;28;20434;-81
2021/09/04 10:12:56;;;;;;;;;;;;;;;21.69;53.82;96477.09;5053436;28;20430;-82
2021/09/04 10:15:35;;;;;;;;;;;;;;;21.79;54.11;96476.16;5053663;28;19963;-81
2021/09/04 10:18:02;;;;;;;;;;;;;;;21.91;51.93;96454.38;5051669;28;19976;-81
2021/09/04 10:20:30;;;;;;;;;;;;;;;22.05;52.81;96463.25;5053234;28;19973;-81
2021/09/04 10:22:56;;;;;;;;;;;;;;;22.24;52.33;96455.22;5052042;28;20459;-81
2021/09/04 10:25:22;;;;;;;;;;;;;;;22.37;54.38;96467.81;5053261;28;19969;-82
2021/09/04 10:27:49;;;;;;;;;;;;;;;22.47;50.48;96446.28;5053404;28;20465;-82
2021/09/04 10:30:23;;;;;;;;;;;;;;;22.57;50.10;96429.25;5053084;28;19973;-81
2021/09/04 10:33:01;;;;;;;;;;;;;;;22.57;48.57;96413.22;5053195;28;19965;-81
2021/09/04 10:35:45;;;;;;;;;;;;;;;22.61;52.02;96458.84;5053446;28;20341;-81
2021/09/04 10:38:17;;;;;;;;;;;;;;;22.67;50.47;96439.75;5052908;28;19969;-81
2021/09/04 10:40:44;;;;;;;;;;;;;;;22.77;50.30;96436.09;5052298;28;19970;-81
2021/09/04 10:43:10;;;;;;;;;;;;;;;22.90;51.07;96435.31;5052883;28;19969;-81
2021/09/04 10:45:37;;;;;;;;;;;;;;;23.03;51.41;96446.34;5053261;28;19973;-81
2021/09/04 10:48:13;;;;;;;;;;;;;;;23.19;50.59;96444.94;5053331;28;20454;-81
2021/09/04 10:50:39;;;;;;;;;;;;;;;23.38;49.82;96436.00;5041601;28;20353;-81
2021/09/04 10:53:08;;;;;;;;;;;;;;;23.43;49.10;96441.22;5056921;28;19969;-81
2021/09/04 10:55:35;;;;;;;;;;;;;;;23.47;47.44;96428.84;5056759;28;19969;-81
2021/09/04 10:58:04;;;;;;;;;;;;;;;23.57;50.30;96455.38;5057297;28;19977;-81
2021/09/04 11:00:34;;;;;;;;;;;;;;;23.53;48.04;96430.31;5056831;28;19969;-81
2021/09/04 11:03:00;;;;;;;;;;;;;;;23.61;50.31;96461.72;5056721;28;20366;-81
2021/09/04 11:05:41;;;;;;;;;;;;;;;23.76;46.96;96441.06;5056813;28;19969;-81
2021/09/04 11:08:11;;;;;;;;;;;;;;;23.83;47.06;96444.94;5056655;28;19966;-81
2021/09/04 11:10:41;;;;;;;;;;;;;;;24.00;48.79;96455.00;5056555;28;19988;-81
2021/09/04 11:13:13;;;;;;;;;;;;;;;24.22;47.86;96454.19;5055710;28;19965;-81
2021/09/04 11:15:42;;;;;;;;;;;;;;;24.35;45.37;96428.41;5056436;28;19973;-81
2021/09/04 11:18:10;;;;;;;;;;;;;;;24.42;46.73;96436.81;5056226;28;19980;-81
2021/09/04 11:20:46;;;;;;;;;;;;;;;24.55;47.74;96447.75;5056215;28;19965;-81
2021/09/04 11:23:23;;;;;;;;;;;;;;;24.52;45.26;96439.22;5056175;28;19996;-81
2021/09/04 11:25:49;;;;;;;;;;;;;;;24.59;47.36;96467.50;5056772;28;19973;-81
2021/09/04 11:28:26;;;;;;;;;;;;;;;24.71;47.23;96465.84;5054757;28;19980;-81
2021/09/04 11:30:52;;;;;;;;;;;;;;;24.86;46.25;96461.97;5055048;28;19964;-81
2021/09/04 11:33:18;;;;;;;;;;;;;;;24.94;42.49;96440.84;5056183;28;20492;-81
2021/09/04 11:35:45;;;;;;;;;;;;;;;24.85;43.94;96476.47;5056145;28;20034;-81
2021/09/04 11:38:11;;;;;;;;;;;;;;;24.90;46.71;96492.44;5056301;28;19976;-81
2021/09/04 11:40:37;;;;;;;;;;;;;;;25.05;46.01;96488.56;5056003;28;19969;-81
2021/09/04 11:43:04;;;;;;;;;;;;;;;25.03;45.26;96484.56;5056038;28;20450;-81
2021/09/04 11:45:31;;;;;;;;;;;;;;;25.02;43.95;96480.31;5054707;28;19991;-81
2021/09/04 11:48:03;;;;;;;;;;;;;;;25.01;42.47;96463.44;5055938;28;19969;-81
2021/09/04 11:50:31;;;;;;;;;;;;;;;25.07;45.10;96486.34;5056212;28;19973;-81
2021/09/04 11:53:05;;;;;;;;;;;;;;;25.10;41.50;96460.78;5055923;28;20458;-81
2021/09/04 11:55:31;;;;;;;;;;;;;;;25.09;43.06;96496.75;5055865;28;20003;-81
2021/09/04 11:57:58;;;;;;;;;;;;;;;25.24;42.09;96479.47;5055454;28;20080;-81
2021/09/04 12:00:24;;;;;;;;;;;;;;;25.42;43.24;96483.78;5054493;28;19969;-81
2021/09/04 12:02:50;;;;;;;;;;;;;;;25.57;43.87;96489.81;5055672;28;20386;-81
2021/09/04 12:05:18;;;;;;;;;;;;;;;25.73;42.95;96469.47;5055382;28;19969;-81
2021/09/04 12:07:44;;;;;;;;;;;;;;;25.85;42.46;96469.63;5055391;28;19977;-81
2021/09/04 12:10:11;;;;;;;;;;;;;;;25.97;43.01;96474.38;5055382;28;20369;-81
2021/09/04 12:12:38;;;;;;;;;;;;;;;26.10;43.06;96476.13;5055160;28;19974;-79
2021/09/04 12:15:04;;;;;;;;;;;;;;;26.18;41.33;96473.75;5055956;28;19965;-79
2021/09/04 12:17:30;;;;;;;;;;;;;;;26.11;40.34;96477.69;5055484;28;19970;-79
2021/09/04 12:20:07;;;;;;;;;;;;;;;26.15;38.87;96460.94;5055291;28;19977;-79
2021/09/04 12:22:33;;;;;;;;;;;;;;;26.18;39.16;96463.00;5055432;28;20007;-79
2021/09/04 12:24:59;;;;;;;;;;;;;;;26.23;40.02;96471.69;5055236;28;19977;-79
2021/09/04 12:27:35;;;;;;;;;;;;;;;26.36;40.04;96477.22;5055219;28;19977;-79
2021/09/04 12:30:01;;;;;;;;;;;;;;;26.50;40.38;96470.53;5055096;28;19992;-79
2021/09/04 12:32:32;;;;;;;;;;;;;;;26.61;39.27;96460.25;5055347;28;19973;-79
2021/09/04 12:34:59;;;;;;;;;;;;;;;26.65;37.28;96455.03;5055201;28;19976;-79
2021/09/04 12:37:26;;;;;;;;;;;;;;;26.65;38.49;96471.16;5054241;28;19981;-79
2021/09/04 12:39:52;;;;;;;;;;;;;;;26.62;36.34;96448.38;5054765;28;19970;-79
2021/09/04 12:42:18;;;;;;;;;;;;;;;26.40;37.84;96465.50;5054885;28;19973;-79
2021/09/04 12:44:45;;;;;;;;;;;;;;;26.25;38.53;96482.13;5054748;28;19969;-79